createdAt,value
2018-02-20T00:01:11.424Z,27.43
2018-02-20T00:03:38.901Z,28.37
2018-02-20T00:06:07.156Z,27.70
2018-02-20T00:08:34.633Z,28.30
2018-02-20T00:11:02.905Z,28.77
2018-02-20T00:13:30.380Z,29.17
2018-02-20T00:15:58.640Z,27.87
2018-02-20T00:18:26.122Z,28.30
2018-02-20T00:20:53.627Z,28.33
2018-02-20T00:23:21.119Z,26.70
2018-02-20T00:25:48.611Z,28.17
2018-02-20T00:28:16.101Z,26.63
2018-02-20T00:30:43.583Z,26.07
2018-02-20T00:33:11.156Z,26.20
2018-02-20T00:35:39.414Z,28.33
2018-02-20T00:38:06.887Z,26.63
2018-02-20T00:40:34.370Z,27.00
2018-02-20T00:43:01.848Z,27.83
2018-02-20T00:45:29.337Z,27.60
2018-02-20T00:47:56.806Z,28.20
2018-02-20T00:50:24.299Z,28.90
2018-02-20T00:52:51.783Z,28.37
2018-02-20T00:55:19.248Z,28.30
2018-02-20T00:57:46.739Z,27.77
2018-02-20T01:00:14.212Z,28.17
2018-02-20T01:02:42.464Z,27.80
2018-02-20T01:05:09.928Z,26.97
2018-02-20T01:07:37.535Z,30.50
2018-02-20T01:10:05.012Z,27.83
2018-02-20T01:12:32.502Z,26.33
2018-02-20T01:14:59.968Z,29.60
2018-02-20T01:17:27.448Z,26.40
2018-02-20T01:19:55.686Z,28.03
2018-02-20T01:22:23.163Z,30.63
2018-02-20T01:24:51.422Z,29.05
2018-02-20T01:27:18.915Z,26.77
2018-02-20T01:29:46.393Z,27.90
2018-02-20T01:32:13.874Z,28.37
2018-02-20T01:34:41.352Z,28.65
2018-02-20T01:37:08.833Z,27.23
2018-02-20T01:39:37.085Z,27.23
2018-02-20T01:42:04.583Z,31.00
2018-02-20T01:44:32.054Z,28.10
2018-02-20T01:46:59.538Z,29.00
2018-02-20T01:49:27.026Z,27.47
2018-02-20T01:51:54.659Z,27.27
2018-02-20T01:54:22.143Z,27.67
2018-02-20T01:56:49.619Z,29.17
2018-02-20T01:59:17.863Z,30.60
2018-02-20T02:01:45.351Z,31.13
2018-02-20T02:04:13.604Z,27.50
2018-02-20T02:06:42.984Z,27.30
2018-02-20T02:09:10.448Z,27.07
2018-02-20T02:11:37.925Z,28.13
2018-02-20T02:14:05.395Z,24.63
2018-02-20T02:16:33.641Z,30.13
2018-02-20T02:19:01.107Z,27.48
2018-02-20T02:21:28.594Z,28.10
2018-02-20T02:23:56.839Z,28.53
2018-02-20T02:26:24.310Z,28.30
2018-02-20T02:28:51.788Z,27.37
2018-02-20T02:31:20.020Z,27.93
2018-02-20T02:33:47.515Z,27.60
2018-02-20T02:36:15.763Z,26.50
2018-02-20T02:38:43.234Z,27.97
2018-02-20T02:41:10.807Z,27.57
2018-02-20T02:43:39.056Z,28.47
2018-02-20T02:46:06.527Z,28.30
2018-02-20T02:48:33.996Z,26.67
2018-02-20T02:51:02.240Z,28.50
2018-02-20T02:53:29.730Z,29.03
2018-02-20T02:55:57.966Z,27.70
2018-02-20T02:58:25.459Z,27.03
2018-02-20T03:00:52.950Z,29.70
2018-02-20T03:03:20.428Z,26.70
2018-02-20T03:05:47.934Z,28.13
2018-02-20T03:08:16.566Z,27.57
2018-02-20T03:10:44.216Z,26.77
2018-02-20T03:13:11.692Z,26.27
2018-02-20T03:15:39.158Z,28.20
2018-02-20T03:18:06.649Z,28.63
2018-02-20T03:20:34.892Z,27.37
2018-02-20T03:23:02.373Z,27.93
2018-02-20T03:25:29.860Z,27.80
2018-02-20T03:27:58.104Z,29.40
2018-02-20T03:30:25.588Z,27.90
2018-02-20T03:32:53.830Z,27.00
2018-02-20T03:35:21.346Z,27.95
2018-02-20T03:37:48.832Z,28.40
2018-02-20T03:40:16.295Z,26.10
2018-02-20T03:42:43.780Z,27.53
2018-02-20T03:45:11.276Z,26.43
2018-02-20T03:47:38.758Z,27.47
2018-02-20T03:50:06.223Z,30.03
2018-02-20T03:52:33.711Z,28.23
2018-02-20T03:55:01.193Z,28.40
2018-02-20T03:57:29.557Z,29.00
2018-02-20T03:59:57.786Z,28.43
2018-02-20T04:02:25.252Z,27.50
2018-02-20T04:04:52.732Z,29.63
2018-02-20T04:07:20.203Z,29.67
2018-02-20T04:09:48.438Z,29.33
2018-02-20T04:12:15.910Z,30.10
2018-02-20T04:14:43.408Z,27.70
2018-02-20T04:17:10.870Z,29.37
2018-02-20T04:19:38.361Z,29.00
2018-02-20T04:22:05.867Z,27.90
2018-02-20T04:24:34.125Z,27.40
2018-02-20T04:27:01.595Z,28.87
2018-02-20T04:29:29.060Z,29.13
2018-02-20T04:31:57.305Z,29.63
2018-02-20T04:34:24.836Z,30.00
2018-02-20T04:36:52.292Z,27.80
2018-02-20T04:39:19.772Z,28.80
2018-02-20T04:41:47.229Z,28.98
2018-02-20T04:44:14.822Z,30.07
2018-02-20T04:46:42.292Z,29.13
2018-02-20T04:49:10.551Z,30.60
2018-02-20T04:51:38.013Z,30.40
2018-02-20T04:54:05.491Z,29.50
2018-02-20T04:56:33.780Z,29.40
2018-02-20T04:59:01.305Z,29.07
2018-02-20T05:01:29.548Z,29.57
2018-02-20T05:03:57.142Z,27.47
2018-02-20T05:06:24.603Z,31.93
2018-02-20T05:08:52.843Z,31.30
2018-02-20T05:11:20.310Z,29.93
2018-02-20T05:13:47.803Z,29.63
2018-02-20T05:16:16.028Z,29.10
2018-02-20T05:18:43.502Z,29.80
2018-02-20T05:21:10.983Z,31.27
2018-02-20T05:23:39.248Z,29.70
2018-02-20T05:26:07.494Z,29.60
2018-02-20T05:28:34.968Z,32.17
2018-02-20T05:31:02.539Z,29.70
2018-02-20T05:33:30.046Z,29.63
2018-02-20T05:35:57.520Z,30.43
2018-02-20T05:38:24.998Z,32.10
2018-02-20T05:40:52.483Z,30.87
2018-02-20T05:43:20.729Z,28.83
2018-02-20T05:45:48.224Z,29.50
2018-02-20T05:48:16.457Z,27.90
2018-02-20T05:50:43.957Z,30.67
2018-02-20T05:53:12.208Z,30.90
2018-02-20T05:55:39.694Z,29.60
2018-02-20T05:58:07.928Z,28.87
2018-02-20T06:00:35.413Z,28.70
2018-02-20T06:03:02.895Z,26.70
2018-02-20T06:05:30.372Z,27.97
2018-02-20T06:07:57.847Z,25.87
2018-02-20T06:10:25.343Z,27.25
2018-02-20T06:12:52.832Z,27.90
2018-02-20T06:15:20.362Z,29.10
2018-02-20T06:17:48.612Z,29.83
2018-02-20T06:20:16.089Z,31.30
2018-02-20T06:22:43.581Z,29.73
2018-02-20T06:25:11.055Z,29.17
2018-02-20T06:27:38.549Z,29.90
2018-02-20T06:30:06.027Z,30.10
2018-02-20T06:32:33.494Z,27.40
2018-02-20T06:35:01.750Z,29.70
2018-02-20T06:37:29.231Z,27.57
2018-02-20T06:39:57.489Z,28.73
2018-02-20T06:42:24.971Z,27.13
2018-02-20T06:44:52.466Z,27.10
2018-02-20T06:47:19.947Z,27.43
2018-02-20T06:49:47.447Z,31.63
2018-02-20T06:52:14.910Z,23.60
2018-02-20T06:54:42.388Z,25.37
2018-02-20T06:57:09.864Z,26.00
2018-02-20T06:59:37.346Z,26.13
2018-02-20T07:02:04.820Z,24.80
2018-02-20T07:04:33.083Z,25.80
2018-02-20T07:07:00.568Z,24.37
2018-02-20T07:09:28.306Z,23.10
2018-02-20T07:11:55.779Z,22.90
2018-02-20T07:14:24.051Z,24.50
2018-02-20T07:16:52.304Z,21.87
2018-02-20T07:19:19.773Z,23.57
2018-02-20T07:21:47.269Z,23.30
2018-02-20T07:24:14.765Z,23.30
2018-02-20T07:26:42.240Z,21.07
2018-02-20T07:29:09.710Z,23.03
2018-02-20T07:31:38.033Z,21.70
2018-02-20T07:34:06.233Z,23.77
2018-02-20T07:36:33.740Z,21.47
2018-02-20T07:39:04.943Z,22.98
2018-02-20T07:41:32.424Z,23.40
2018-02-20T07:44:00.664Z,22.43
2018-02-20T07:46:28.153Z,22.40
2018-02-20T07:48:56.395Z,21.67
2018-02-20T07:51:23.882Z,20.40
2018-02-20T07:53:52.131Z,22.93
2018-02-20T07:56:19.613Z,21.80
2018-02-20T07:58:47.086Z,22.30
2018-02-20T08:01:17.086Z,21.15
2018-02-20T08:03:44.556Z,21.97
2018-02-20T08:06:12.055Z,22.13
2018-02-20T08:08:39.526Z,20.60
2018-02-20T08:11:07.008Z,20.70
2018-02-20T08:13:34.476Z,21.73
2018-02-20T08:16:01.941Z,21.70
2018-02-20T08:18:30.189Z,21.10
2018-02-20T08:20:57.665Z,18.40
2018-02-20T08:23:25.144Z,18.73
2018-02-20T08:25:53.408Z,20.17
2018-02-20T08:28:20.872Z,19.27
2018-02-20T08:30:49.121Z,20.63
2018-02-20T08:33:16.616Z,20.20
2018-02-20T08:35:44.875Z,21.37
2018-02-20T08:38:13.154Z,21.07
2018-02-20T08:40:41.399Z,18.13
2018-02-20T08:43:08.872Z,18.90
2018-02-20T08:45:36.370Z,19.70
2018-02-20T08:48:03.836Z,19.30
2018-02-20T08:50:31.297Z,18.27
2018-02-20T08:52:58.787Z,18.23
2018-02-20T08:55:26.264Z,18.10
2018-02-20T08:57:53.766Z,17.53
2018-02-20T09:00:21.260Z,19.13
2018-02-20T09:02:48.727Z,16.43
2018-02-20T09:05:16.392Z,17.73
2018-02-20T09:07:43.883Z,16.80
2018-02-20T09:10:12.146Z,15.73
2018-02-20T09:12:39.635Z,16.40
2018-02-20T09:15:07.126Z,15.73
2018-02-20T09:20:28.197Z,17.87
2018-02-20T09:22:56.452Z,18.03
2018-02-20T09:25:23.935Z,16.63
2018-02-20T09:27:52.168Z,16.20
2018-02-20T09:30:21.148Z,15.23
2018-02-20T09:32:48.651Z,16.37
2018-02-20T09:35:18.259Z,15.13
2018-02-20T09:37:46.504Z,17.65
2018-02-20T09:40:13.967Z,16.33
2018-02-20T09:42:41.454Z,15.90
2018-02-20T09:45:09.703Z,16.97
2018-02-20T09:47:37.180Z,14.13
2018-02-20T09:50:05.416Z,14.57
2018-02-20T09:52:32.904Z,15.63
2018-02-20T09:55:01.155Z,14.03
2018-02-20T09:57:28.701Z,14.07
2018-02-20T09:59:56.137Z,12.90
2018-02-20T10:02:23.656Z,13.70
2018-02-20T10:04:57.721Z,14.80
2018-02-20T10:07:25.207Z,16.10
2018-02-20T10:09:52.684Z,12.93
2018-02-20T10:12:20.196Z,13.47
2018-02-20T10:14:47.678Z,14.60
2018-02-20T10:17:15.145Z,14.80
2018-02-20T10:19:42.624Z,12.57
2018-02-20T10:22:10.875Z,14.70
2018-02-20T10:24:38.367Z,16.30
2018-02-20T10:27:13.547Z,15.50
2018-02-20T10:29:41.021Z,14.20
2018-02-20T10:32:08.517Z,15.15
2018-02-20T10:34:35.987Z,13.70
2018-02-20T10:37:03.471Z,16.97
2018-02-20T10:39:30.954Z,14.60
2018-02-20T10:41:58.432Z,15.67
2018-02-20T10:44:25.901Z,16.87
2018-02-20T10:46:54.155Z,17.10
2018-02-20T10:49:21.628Z,15.90
2018-02-20T10:51:49.872Z,16.20
2018-02-20T10:54:17.368Z,16.23
2018-02-20T10:56:45.625Z,16.43
2018-02-20T10:59:13.096Z,16.40
2018-02-20T11:01:41.373Z,16.77
2018-02-20T11:04:08.836Z,16.63
2018-02-20T11:06:37.065Z,16.63
2018-02-20T11:09:04.551Z,18.23
2018-02-20T11:11:32.025Z,16.80
2018-02-20T11:14:00.288Z,15.93
2018-02-20T11:16:27.759Z,16.20
2018-02-20T11:18:56.036Z,18.87
2018-02-20T11:21:24.280Z,17.63
2018-02-20T11:23:51.772Z,17.40
2018-02-20T11:26:20.418Z,17.10
2018-02-20T11:28:49.421Z,16.10
2018-02-20T11:31:16.890Z,16.90
2018-02-20T11:33:44.367Z,16.03
2018-02-20T11:36:12.603Z,16.50
2018-02-20T11:38:40.092Z,18.10
2018-02-20T11:41:08.334Z,16.87
2018-02-20T11:43:35.830Z,17.20
2018-02-20T11:46:04.069Z,18.30
2018-02-20T11:48:31.566Z,17.07
2018-02-20T11:50:59.816Z,18.70
2018-02-20T11:53:27.306Z,18.33
2018-02-20T11:55:55.594Z,19.57
2018-02-20T11:58:23.829Z,21.10
2018-02-20T12:00:52.814Z,19.60
2018-02-20T12:03:20.284Z,19.70
2018-02-20T12:05:47.753Z,19.10
2018-02-20T12:08:16.014Z,15.70
2018-02-20T12:10:43.487Z,16.60
2018-02-20T12:13:11.726Z,16.17
2018-02-20T12:15:39.206Z,15.10
2018-02-20T12:18:06.693Z,15.67
2018-02-20T12:20:34.942Z,18.33
2018-02-20T12:23:02.435Z,19.13
2018-02-20T12:25:29.899Z,20.10
2018-02-20T12:27:57.375Z,21.07
2018-02-20T12:30:24.855Z,19.60
2018-02-20T12:32:52.341Z,20.58
2018-02-20T12:35:20.900Z,19.47
2018-02-20T12:37:48.372Z,20.80
2018-02-20T12:40:15.846Z,23.73
2018-02-20T12:42:44.131Z,21.43
2018-02-20T12:45:11.584Z,19.87
2018-02-20T12:47:39.819Z,21.17
2018-02-20T12:50:07.311Z,21.03
2018-02-20T12:52:35.532Z,18.07
2018-02-20T12:55:03.067Z,17.92
2018-02-20T12:57:30.532Z,18.47
2018-02-20T12:59:58.027Z,19.70
2018-02-20T13:02:25.481Z,20.27
2018-02-20T13:04:52.955Z,20.03
2018-02-20T13:07:20.424Z,19.77
2018-02-20T13:09:47.912Z,20.57
2018-02-20T13:12:15.398Z,19.27
2018-02-20T13:14:42.889Z,20.47
2018-02-20T13:17:10.379Z,19.33
2018-02-20T13:19:38.636Z,17.83
2018-02-20T13:22:06.111Z,19.47
2018-02-20T13:24:34.360Z,21.23
2018-02-20T13:27:01.835Z,20.93
2018-02-20T13:29:30.087Z,19.27
2018-02-20T13:31:57.562Z,18.03
2018-02-20T13:34:25.872Z,18.07
2018-02-20T13:36:53.366Z,17.00
2018-02-20T13:42:13.720Z,17.47
2018-02-20T13:44:41.982Z,16.27
2018-02-20T13:47:10.227Z,16.27
2018-02-20T13:49:37.714Z,18.00
2018-02-20T13:52:05.954Z,17.50
2018-02-20T13:54:33.436Z,17.03
2018-02-20T13:57:00.912Z,17.87
2018-02-20T13:59:29.169Z,16.07
2018-02-20T14:01:56.637Z,15.83
2018-02-20T14:04:24.114Z,17.07
2018-02-20T14:06:52.382Z,16.60
2018-02-20T14:09:20.661Z,18.00
2018-02-20T14:11:48.913Z,17.03
2018-02-20T14:14:16.476Z,17.37
2018-02-20T14:16:44.043Z,18.40
2018-02-20T14:19:12.319Z,19.93
2018-02-20T14:21:40.574Z,19.57
2018-02-20T14:24:08.055Z,18.13
2018-02-20T14:26:36.343Z,20.10
2018-02-20T14:29:04.592Z,18.00
2018-02-20T14:31:32.080Z,18.17
2018-02-20T14:33:59.569Z,19.00
2018-02-20T14:36:27.064Z,20.13
2018-02-20T14:38:54.566Z,16.60
2018-02-20T14:41:22.032Z,23.83
2018-02-20T14:43:49.509Z,19.77
2018-02-20T14:46:17.017Z,19.20
2018-02-20T14:48:45.268Z,18.83
2018-02-20T14:51:12.770Z,20.93
2018-02-20T14:53:40.251Z,21.37
2018-02-20T14:56:07.731Z,19.97
2018-02-20T14:58:35.230Z,20.13
2018-02-20T15:01:03.489Z,23.00
2018-02-20T15:03:30.961Z,20.50
2018-02-20T15:05:59.207Z,23.15
2018-02-20T15:08:26.685Z,21.73
2018-02-20T15:10:54.163Z,22.17
2018-02-20T15:13:22.386Z,20.93
2018-02-20T15:15:49.879Z,24.17
2018-02-20T15:18:18.137Z,21.70
2018-02-20T15:20:45.704Z,19.47
2018-02-20T15:23:13.177Z,19.97
2018-02-20T15:25:41.422Z,21.90
2018-02-20T15:28:08.880Z,22.27
2018-02-20T15:30:36.371Z,19.47
2018-02-20T15:33:04.605Z,19.43
2018-02-20T15:35:32.091Z,21.73
2018-02-20T15:37:59.555Z,19.43
2018-02-20T15:40:27.830Z,19.13
2018-02-20T15:42:56.063Z,16.63
2018-02-20T15:45:23.569Z,19.80
2018-02-20T15:47:51.815Z,20.73
2018-02-20T15:50:19.298Z,18.80
2018-02-20T15:52:47.544Z,17.60
2018-02-20T15:55:15.021Z,16.87
2018-02-20T15:57:42.484Z,17.40
2018-02-20T16:00:10.728Z,18.03
2018-02-20T16:02:38.205Z,18.97
2018-02-20T16:05:05.703Z,22.37
2018-02-20T16:07:33.169Z,22.43
2018-02-20T16:10:01.441Z,21.83
2018-02-20T16:12:28.908Z,21.17
2018-02-20T16:14:56.408Z,19.73
2018-02-20T16:17:23.888Z,21.70
2018-02-20T16:19:52.151Z,19.73
2018-02-20T16:22:19.651Z,21.00
2018-02-20T16:24:47.122Z,21.70
2018-02-20T16:27:14.606Z,23.53
2018-02-20T16:29:42.077Z,20.87
2018-02-20T16:32:09.574Z,21.83
2018-02-20T16:34:37.066Z,20.63
2018-02-20T16:37:04.564Z,23.90
2018-02-20T16:39:32.039Z,22.13
2018-02-20T16:41:59.548Z,27.50
2018-02-20T16:44:27.030Z,24.27
2018-02-20T16:46:54.523Z,24.10
2018-02-20T16:49:22.000Z,22.73
2018-02-20T16:51:49.485Z,22.87
2018-02-20T16:54:16.953Z,22.13
2018-02-20T16:56:44.446Z,23.70
2018-02-20T16:59:12.686Z,24.33
2018-02-20T17:01:40.185Z,23.43
2018-02-20T17:04:07.679Z,26.20
2018-02-20T17:06:35.163Z,23.30
2018-02-20T17:09:03.407Z,22.10
2018-02-20T17:11:30.879Z,23.60
2018-02-20T17:13:58.348Z,23.80
2018-02-20T17:16:25.823Z,22.27
2018-02-20T17:18:54.064Z,23.73
2018-02-20T17:21:21.566Z,23.07
2018-02-20T17:23:49.044Z,23.02
2018-02-20T17:26:16.522Z,24.27
2018-02-20T17:28:44.051Z,24.70
2018-02-20T17:31:12.295Z,24.70
2018-02-20T17:33:39.784Z,24.07
2018-02-20T17:36:08.033Z,23.70
2018-02-20T17:38:35.502Z,23.30
2018-02-20T17:41:03.752Z,25.27
2018-02-20T17:43:31.244Z,24.50
2018-02-20T17:46:00.512Z,23.67
2018-02-20T17:48:27.999Z,26.07
2018-02-20T17:50:56.266Z,22.77
2018-02-20T17:53:24.489Z,21.93
2018-02-20T17:55:51.986Z,23.30
2018-02-20T17:58:19.472Z,24.43
2018-02-20T18:00:47.920Z,21.23
2018-02-20T18:03:15.418Z,23.40
2018-02-20T18:05:42.916Z,24.23
2018-02-20T18:08:10.453Z,21.97
2018-02-20T18:10:37.978Z,23.83
2018-02-20T18:13:06.230Z,23.20
2018-02-20T18:15:33.700Z,23.97
2018-02-20T18:18:01.184Z,22.70
2018-02-20T18:20:29.007Z,25.33
2018-02-20T18:22:56.590Z,22.43
2018-02-20T18:25:24.836Z,24.10
2018-02-20T18:27:52.324Z,23.23
2018-02-20T18:30:20.566Z,23.40
2018-02-20T18:32:48.040Z,23.23
2018-02-20T18:35:15.533Z,23.27
2018-02-20T18:37:43.011Z,23.30
2018-02-20T18:40:10.483Z,24.33
2018-02-20T18:42:37.976Z,24.60
2018-02-20T18:45:05.534Z,26.60
2018-02-20T18:47:33.032Z,26.50
2018-02-20T18:50:00.488Z,26.07
2018-02-20T18:52:27.967Z,25.47
2018-02-20T18:54:55.439Z,25.70
2018-02-20T18:57:22.948Z,26.87
2018-02-20T18:59:51.200Z,26.60
2018-02-20T19:02:18.695Z,23.53
2018-02-20T19:04:46.150Z,26.40
2018-02-20T19:07:13.676Z,24.03
2018-02-20T19:09:41.161Z,22.97
2018-02-20T19:12:08.652Z,23.23
2018-02-20T19:14:36.116Z,25.77
2018-02-20T19:17:03.609Z,26.57
2018-02-20T19:19:31.086Z,26.83
2018-02-20T19:21:59.336Z,24.63
2018-02-20T19:24:26.804Z,22.80
2018-02-20T19:26:54.291Z,21.50
2018-02-20T19:29:21.761Z,24.37
2018-02-20T19:31:49.255Z,25.87
2018-02-20T19:34:16.721Z,23.60
2018-02-20T19:36:44.199Z,24.83
2018-02-20T19:39:12.444Z,25.07
2018-02-20T19:41:39.923Z,23.05
2018-02-20T19:44:07.396Z,24.80
2018-02-20T19:46:35.634Z,23.67
2018-02-20T19:49:13.774Z,24.00
2018-02-20T19:51:41.221Z,24.37
2018-02-20T19:54:08.699Z,24.30
2018-02-20T19:56:36.928Z,23.97
2018-02-20T19:59:04.408Z,24.63
2018-02-20T20:01:31.879Z,26.13
2018-02-20T20:04:00.142Z,27.53
2018-02-20T20:06:27.603Z,27.25
2018-02-20T20:08:55.859Z,26.93
2018-02-20T20:11:23.344Z,24.30
2018-02-20T20:13:51.596Z,26.47
2018-02-20T20:16:19.078Z,24.30
2018-02-20T20:18:47.345Z,25.90
2018-02-20T20:21:14.820Z,25.07
2018-02-20T20:23:43.059Z,27.27
2018-02-20T20:26:10.512Z,28.67
2018-02-20T20:28:37.996Z,27.93
2018-02-20T20:31:06.251Z,24.37
2018-02-20T20:33:33.742Z,28.93
2018-02-20T20:36:01.991Z,25.75
2018-02-20T20:38:29.470Z,27.07
2018-02-20T20:40:57.721Z,28.07
2018-02-20T20:43:25.299Z,26.60
2018-02-20T20:45:52.768Z,27.50
2018-02-20T20:48:21.023Z,29.63
2018-02-20T20:50:48.488Z,28.03
2018-02-20T20:53:15.976Z,28.00
2018-02-20T20:55:43.448Z,27.97
2018-02-20T20:58:10.916Z,30.07
2018-02-20T21:00:38.391Z,28.60
2018-02-20T21:03:05.894Z,27.20
2018-02-20T21:05:34.146Z,29.20
2018-02-20T21:08:02.438Z,31.00
2018-02-20T21:10:30.689Z,32.40
2018-02-20T21:12:58.958Z,32.93
2018-02-20T21:15:26.440Z,30.20
2018-02-20T21:17:53.935Z,29.50
2018-02-20T21:20:21.416Z,29.40
2018-02-20T21:22:48.915Z,27.93
2018-02-20T21:25:16.387Z,27.87
2018-02-20T21:27:44.643Z,29.03
2018-02-20T21:30:12.138Z,30.65
2018-02-20T21:32:39.659Z,30.33
2018-02-20T21:35:07.239Z,32.23
2018-02-20T21:37:34.765Z,32.93
2018-02-20T21:40:02.260Z,31.60
2018-02-20T21:42:30.627Z,27.37
2018-02-20T21:44:58.881Z,28.60
2018-02-20T21:47:26.356Z,28.90
2018-02-20T21:49:54.639Z,28.27
2018-02-20T21:52:22.877Z,27.90
2018-02-20T21:54:50.364Z,31.63
2018-02-20T21:57:18.613Z,31.20
2018-02-20T21:59:46.104Z,29.57
2018-02-20T22:02:14.372Z,29.83
2018-02-20T22:04:42.620Z,37.10
2018-02-20T22:07:10.108Z,33.30
2018-02-20T22:09:38.378Z,29.27
2018-02-20T22:12:05.867Z,29.60
2018-02-20T22:14:33.379Z,30.70
2018-02-20T22:17:00.854Z,30.70
2018-02-20T22:19:28.326Z,29.47
2018-02-20T22:21:56.654Z,30.23
2018-02-20T22:24:24.152Z,29.23
2018-02-20T22:26:52.404Z,30.02
2018-02-20T22:29:19.978Z,29.40
2018-02-20T22:31:47.455Z,28.87
2018-02-20T22:34:15.703Z,31.80
2018-02-20T22:36:43.184Z,32.22
2018-02-20T22:39:11.459Z,29.10
2018-02-20T22:41:39.707Z,30.80
2018-02-20T22:44:07.195Z,27.63
2018-02-20T22:46:35.438Z,31.13
2018-02-20T22:49:03.712Z,27.13
2018-02-20T22:51:31.191Z,28.70
2018-02-20T22:53:58.680Z,28.93
2018-02-20T22:56:26.158Z,32.00
2018-02-20T22:58:53.632Z,30.53
2018-02-20T23:01:21.119Z,30.10
2018-02-20T23:03:48.631Z,31.27
2018-02-20T23:06:16.867Z,30.87
2018-02-20T23:08:45.111Z,31.23
2018-02-20T23:11:12.598Z,31.07
2018-02-20T23:13:40.063Z,30.17
2018-02-20T23:16:08.311Z,29.30
2018-02-20T23:18:35.798Z,29.30
2018-02-20T23:21:04.051Z,28.17
2018-02-20T23:23:33.049Z,28.53
2018-02-20T23:26:00.547Z,29.37
2018-02-20T23:28:28.074Z,29.10
2018-02-20T23:30:56.342Z,25.70
2018-02-20T23:33:23.816Z,24.73
2018-02-20T23:35:52.083Z,27.17
2018-02-20T23:38:19.560Z,29.53
2018-02-20T23:40:54.170Z,25.17
2018-02-20T23:43:22.411Z,28.67
2018-02-20T23:45:49.902Z,24.17
2018-02-20T23:48:18.153Z,26.57
2018-02-20T23:50:45.667Z,27.33
2018-02-20T23:53:16.060Z,27.58
2018-02-20T23:55:44.329Z,28.77
2018-02-20T23:58:11.846Z,28.07
